Time;durP1;ratioP1;P1;durP2;ratioP2;P2;SDS_P1;SDS_P2;PMS_P1;PMS_P2;Temp;Humidity;BMP_temperature;BMP_pressure;BME280_temperature;BME280_humidity;BME280_pressure;Samples;Min_cycle;Max_cycle;Signal;HPM_P1;HPM_P2
2023/10/10 00:00:47;;;;;;;8.67;3.97;;;19.30;38.40;;;;;;10469961;28;20224;-73
2023/10/10 00:05:57;;;;;;;11.63;4.50;;;19.20;38.70;;;;;;10479691;28;20746;-73
2023/10/10 00:11:08;;;;;;;5.60;4.10;;;19.20;38.50;;;;;;10475192;28;20232;-74
2023/10/10 00:16:23;;;;;;;10.67;4.80;;;19.20;38.50;;;;;;10479250;28;20220;-73
2023/10/10 00:21:28;;;;;;;7.77;4.30;;;19.20;38.80;;;;;;10478257;28;20236;-73
2023/10/10 00:26:34;;;;;;;7.93;4.17;;;19.10;38.50;;;;;;10481218;28;20698;-73
2023/10/10 00:31:43;;;;;;;6.60;4.23;;;19.10;38.60;;;;;;10475221;28;20251;-73
2023/10/10 00:36:48;;;;;;;9.87;4.43;;;19.00;38.80;;;;;;10479764;28;20775;-73
2023/10/10 00:41:54;;;;;;;6.77;4.30;;;19.00;38.50;;;;;;10474784;28;20341;-74
2023/10/10 00:47:03;;;;;;;8.70;4.33;;;18.90;38.60;;;;;;10469111;28;20233;-73
2023/10/10 00:52:07;;;;;;;7.50;3.90;;;18.90;38.80;;;;;;10426620;28;20220;-73
2023/10/10 00:57:13;;;;;;;9.40;4.10;;;18.90;38.50;;;;;;10430855;28;20711;-73
2023/10/10 01:02:20;;;;;;;6.73;4.17;;;18.80;38.50;;;;;;10452696;28;20334;-73
2023/10/10 01:07:25;;;;;;;11.90;4.83;;;18.70;38.50;;;;;;10432136;28;20225;-73
2023/10/10 01:12:35;;;;;;;7.83;4.40;;;18.70;38.40;;;;;;10427434;28;20798;-74
2023/10/10 01:17:40;;;;;;;7.97;4.63;;;18.70;38.50;;;;;;10429180;28;20235;-73
2023/10/10 01:22:47;;;;;;;9.17;3.73;;;18.60;38.70;;;;;;10433452;28;20240;-73
2023/10/10 01:27:54;;;;;;;9.03;4.40;;;18.60;38.60;;;;;;10436624;28;20268;-73
2023/10/10 01:33:00;;;;;;;7.60;4.70;;;18.50;38.30;;;;;;10436192;28;20762;-73
2023/10/10 01:38:13;;;;;;;7.97;4.30;;;18.50;38.40;;;;;;10480965;28;20224;-73
2023/10/10 01:43:18;;;;;;;7.07;4.10;;;18.40;38.60;;;;;;10476848;28;20227;-73
2023/10/10 01:48:23;;;;;;;8.43;4.67;;;18.30;38.30;;;;;;10468098;28;20320;-73
2023/10/10 01:53:30;;;;;;;9.77;4.20;;;18.20;38.40;;;;;;10470684;28;20922;-73
2023/10/10 01:58:36;;;;;;;11.53;4.50;;;18.20;38.80;;;;;;10469926;28;20244;-73
2023/10/10 02:03:40;;;;;;;9.10;4.20;;;18.20;38.60;;;;;;10470944;28;20220;-73
2023/10/10 02:08:45;;;;;;;6.30;3.83;;;18.20;38.70;;;;;;10471141;28;20239;-73
2023/10/10 02:13:50;;;;;;;9.27;4.17;;;18.20;38.90;;;;;;10476720;28;20280;-73
2023/10/10 02:18:55;;;;;;;6.37;4.17;;;18.10;38.60;;;;;;10469665;28;20710;-74
2023/10/10 02:24:13;;;;;;;5.47;3.83;;;18.00;38.60;;;;;;10476368;28;20242;-73
2023/10/10 02:29:33;;;;;;;9.67;4.17;;;18.00;39.10;;;;;;10481418;28;20220;-73
2023/10/10 02:34:37;;;;;;;11.43;4.43;;;17.90;38.90;;;;;;10453350;28;20739;-73
2023/10/10 02:39:48;;;;;;;7.97;4.40;;;17.90;39.00;;;;;;10443074;28;20228;-73
2023/10/10 02:44:57;;;;;;;7.73;4.30;;;17.90;39.30;;;;;;10439955;28;20243;-73
2023/10/10 02:50:11;;;;;;;8.13;4.37;;;17.80;38.80;;;;;;10467217;28;20228;-73
2023/10/10 02:55:22;;;;;;;10.37;4.53;;;17.70;39.00;;;;;;10431660;28;20249;-73
2023/10/10 03:00:29;;;;;;;11.70;4.30;;;17.60;39.20;;;;;;10426867;28;20326;-73
2023/10/10 03:05:43;;;;;;;10.07;4.43;;;17.50;39.10;;;;;;10421564;28;20264;-73
2023/10/10 03:10:54;;;;;;;8.73;4.80;;;17.40;39.20;;;;;;10427622;28;20286;-73
2023/10/10 03:16:15;;;;;;;7.77;4.00;;;17.40;39.60;;;;;;10429829;28;20711;-73
2023/10/10 03:21:25;;;;;;;8.80;4.10;;;17.40;39.70;;;;;;10447845;28;20247;-73
2023/10/10 03:26:52;;;;;;;6.80;4.10;;;17.40;39.30;;;;;;10441986;28;20239;-73
2023/10/10 03:32:19;;;;;;;8.57;3.73;;;17.30;39.40;;;;;;10441611;28;20303;-73
2023/10/10 03:37:28;;;;;;;7.17;3.83;;;17.30;39.10;;;;;;10439756;28;20228;-73
2023/10/10 05:24:28;;;;;;;8.33;4.07;;;16.10;40.40;;;;;;10421822;28;20228;-73
2023/10/10 05:29:33;;;;;;;11.30;4.90;;;16.10;40.00;;;;;;10424833;28;20225;-72
2023/10/10 05:34:38;;;;;;;7.40;4.20;;;16.00;40.00;;;;;;10419335;28;20233;-72
2023/10/10 05:39:41;;;;;;;8.20;4.40;;;16.10;40.30;;;;;;10428673;28;20237;-72
2023/10/10 05:44:44;;;;;;;7.00;4.27;;;16.10;40.10;;;;;;10431221;28;20748;-73
2023/10/10 05:49:49;;;;;;;6.70;4.40;;;16.10;40.00;;;;;;10441309;28;20221;-72
2023/10/10 05:54:52;;;;;;;5.93;3.90;;;16.10;40.50;;;;;;10442847;28;20228;-72
2023/10/10 05:59:58;;;;;;;7.37;4.47;;;16.10;40.20;;;;;;10453206;28;20311;-72
2023/10/10 06:05:04;;;;;;;6.27;4.30;;;16.10;40.30;;;;;;10469406;28;20224;-73
2023/10/10 06:10:14;;;;;;;9.00;4.50;;;16.10;40.60;;;;;;10467060;28;20224;-72
2023/10/10 06:15:19;;;;;;;9.23;4.20;;;16.10;40.60;;;;;;10462992;28;20311;-72
2023/10/10 06:20:23;;;;;;;7.77;5.03;;;16.00;40.60;;;;;;10439344;28;20241;-73
2023/10/10 06:25:29;;;;;;;10.43;4.73;;;16.00;41.00;;;;;;10421094;28;20236;-72
2023/10/10 06:30:36;;;;;;;11.23;5.70;;;16.00;40.80;;;;;;10432255;28;20267;-72
2023/10/10 06:35:47;;;;;;;8.00;5.63;;;16.00;40.90;;;;;;10420140;28;20267;-72
2023/10/10 06:40:54;;;;;;;9.37;4.83;;;16.00;41.50;;;;;;10433978;28;20233;-72
2023/10/10 06:45:57;;;;;;;9.97;4.47;;;16.00;41.50;;;;;;10466116;28;20235;-72
2023/10/10 06:51:01;;;;;;;7.40;5.20;;;16.00;41.40;;;;;;10461210;28;20232;-72
2023/10/10 06:56:15;;;;;;;7.63;4.50;;;16.10;42.00;;;;;;10427976;28;20228;-72
2023/10/10 07:01:19;;;;;;;9.87;4.53;;;16.10;41.60;;;;;;10447246;28;20761;-72
2023/10/10 07:06:24;;;;;;;7.03;4.83;;;16.30;41.80;;;;;;10448357;28;20252;-73
2023/10/10 07:11:28;;;;;;;9.00;4.70;;;16.40;42.20;;;;;;10470574;28;20232;-72
2023/10/10 07:16:32;;;;;;;7.47;4.30;;;16.50;41.90;;;;;;10474557;28;20228;-72
2023/10/10 07:21:40;;;;;;;10.00;5.00;;;16.60;42.10;;;;;;10440921;28;20709;-73
2023/10/10 07:26:45;;;;;;;12.50;4.97;;;16.70;42.60;;;;;;10433751;28;20232;-73
2023/10/10 07:31:48;;;;;;;8.50;5.20;;;16.80;42.40;;;;;;10475117;28;20220;-72
2023/10/10 07:36:53;;;;;;;8.20;4.23;;;17.00;42.60;;;;;;10468504;28;20601;-72
2023/10/10 07:41:57;;;;;;;7.30;4.83;;;17.10;43.10;;;;;;10473984;28;20362;-72
2023/10/10 07:47:25;;;;;;;11.77;5.00;;;17.30;43.10;;;;;;10474109;28;20233;-72
2023/10/10 07:52:35;;;;;;;13.17;5.30;;;17.50;43.50;;;;;;10459533;28;20231;-72
2023/10/10 07:57:55;;;;;;;11.50;5.47;;;17.80;44.00;;;;;;10427695;28;20341;-72
2023/10/10 08:02:58;;;;;;;10.37;5.70;;;18.10;43.80;;;;;;10427112;28;20233;-72
2023/10/10 08:08:05;;;;;;;8.90;4.77;;;18.40;43.80;;;;;;10430154;28;20294;-72
2023/10/10 08:13:10;;;;;;;7.63;4.60;;;18.70;43.30;;;;;;10431412;28;20244;-72
2023/10/10 08:18:15;;;;;;;9.23;4.63;;;19.00;43.50;;;;;;10429439;28;20228;-72
2023/10/10 08:23:24;;;;;;;6.87;4.00;;;19.30;42.80;;;;;;10447477;28;20225;-72
2023/10/10 08:28:28;;;;;;;13.27;4.90;;;19.60;42.20;;;;;;10426159;28;20235;-73
2023/10/10 08:33:32;;;;;;;9.77;4.20;;;19.90;41.90;;;;;;10428616;28;20274;-72
2023/10/10 08:38:42;;;;;;;9.60;4.63;;;20.20;41.70;;;;;;10428076;28;20232;-72
2023/10/10 08:43:46;;;;;;;9.27;4.30;;;20.40;41.10;;;;;;10426690;28;20718;-72
2023/10/10 08:48:50;;;;;;;8.77;4.60;;;20.70;40.70;;;;;;10427964;28;20764;-72
2023/10/10 08:53:56;;;;;;;9.70;4.30;;;20.90;40.50;;;;;;10464669;28;20240;-72
2023/10/10 08:59:01;;;;;;;8.23;4.10;;;21.20;40.20;;;;;;10465610;28;20235;-72
2023/10/10 09:04:05;;;;;;;12.07;4.27;;;21.40;40.00;;;;;;10433276;28;20323;-70
2023/10/10 09:09:33;;;;;;;7.93;3.77;;;21.70;39.40;;;;;;10465743;28;20232;-70
2023/10/10 09:14:39;;;;;;;7.53;4.40;;;21.90;38.20;;;;;;10473646;28;20238;-71
2023/10/10 09:19:48;;;;;;;9.07;4.73;;;22.10;38.40;;;;;;10469459;28;20236;-72
2023/10/10 09:24:55;;;;;;;7.83;4.27;;;22.30;37.90;;;;;;10474151;28;20232;-73
2023/10/10 09:30:08;;;;;;;10.47;4.27;;;22.50;37.50;;;;;;10461982;28;20323;-73
2023/10/10 09:35:13;;;;;;;9.43;4.37;;;22.70;38.10;;;;;;10426958;28;20228;-72
2023/10/10 09:40:19;;;;;;;11.57;4.70;;;22.80;37.80;;;;;;10464326;28;20640;-73
2023/10/10 09:45:52;;;;;;;8.40;4.67;;;23.00;37.00;;;;;;10462595;28;20717;-73
2023/10/10 09:52:49;;;;;;;8.67;4.67;;;23.10;35.70;;;;;;10444951;28;20237;-73
2023/10/10 09:56:41;;;;;;;7.57;4.60;;;23.20;35.50;;;;;;10434612;28;20232;-73
2023/10/10 10:01:47;;;;;;;9.57;4.70;;;23.40;36.60;;;;;;10433410;28;20240;-73
2023/10/10 10:07:12;;;;;;;7.73;4.47;;;23.60;37.00;;;;;;10448250;28;20264;-73
2023/10/10 10:12:31;;;;;;;7.87;5.00;;;23.70;35.40;;;;;;10432271;28;20228;-73
2023/10/10 10:17:47;;;;;;;7.70;4.60;;;24.00;34.20;;;;;;10451045;28;20230;-73
2023/10/10 10:22:53;;;;;;;9.63;4.60;;;24.10;34.50;;;;;;10427409;28;20244;-73
2023/10/10 10:28:10;;;;;;;9.63;4.73;;;24.20;35.40;;;;;;10460694;28;20228;-73
2023/10/10 10:33:15;;;;;;;6.67;4.33;;;24.30;34.60;;;;;;10439090;28;20227;-73
2023/10/10 10:38:24;;;;;;;6.60;4.30;;;24.50;35.20;;;;;;10444123;28;20696;-73
2023/10/10 10:43:38;;;;;;;7.57;4.73;;;24.70;33.20;;;;;;10448031;28;20331;-73
2023/10/10 10:48:47;;;;;;;7.33;4.37;;;24.80;33.40;;;;;;10452278;28;20773;-73
2023/10/10 10:53:51;;;;;;;7.10;4.70;;;24.90;33.20;;;;;;10461577;28;21752;-73
2023/10/10 10:59:13;;;;;;;5.90;4.53;;;25.10;33.40;;;;;;10430140;28;20229;-73
2023/10/10 11:04:39;;;;;;;6.20;4.57;;;25.20;30.40;;;;;;10431256;28;20312;-73
2023/10/10 11:09:52;;;;;;;9.00;4.83;;;25.30;32.20;;;;;;10427000;28;20232;-73
2023/10/10 11:14:58;;;;;;;6.27;4.73;;;25.50;32.80;;;;;;10468043;28;20315;-73
2023/10/10 11:20:25;;;;;;;6.10;4.60;;;25.60;31.70;;;;;;10440184;28;20402;-72
2023/10/10 11:25:41;;;;;;;5.80;4.30;;;25.70;32.50;;;;;;10420005;28;20236;-74
2023/10/10 11:30:46;;;;;;;5.53;4.47;;;25.80;31.90;;;;;;10420260;28;20237;-73
2023/10/10 11:36:01;;;;;;;10.93;4.83;;;25.90;31.10;;;;;;10408323;28;20240;-73
2023/10/10 11:41:08;;;;;;;7.13;4.77;;;26.00;30.90;;;;;;10440398;28;20343;-73
2023/10/10 11:46:13;;;;;;;7.57;4.53;;;26.10;31.20;;;;;;10442073;28;20243;-73
2023/10/10 11:51:33;;;;;;;5.40;4.57;;;26.20;29.90;;;;;;10408100;28;20243;-73
2023/10/10 11:56:36;;;;;;;6.57;4.37;;;26.30;29.40;;;;;;10400105;28;20223;-73
2023/10/10 12:01:51;;;;;;;8.97;4.73;;;26.30;29.40;;;;;;10400559;28;20233;-73
2023/10/10 12:06:58;;;;;;;5.13;4.27;;;26.40;28.20;;;;;;10394407;28;20780;-74
2023/10/10 12:12:04;;;;;;;7.03;4.67;;;26.40;29.40;;;;;;10440943;28;20235;-73
2023/10/10 12:17:08;;;;;;;6.63;4.30;;;26.40;29.40;;;;;;10409695;28;20223;-73
2023/10/10 12:22:12;;;;;;;7.17;4.10;;;26.40;28.40;;;;;;10415523;28;20244;-73
2023/10/10 12:27:15;;;;;;;6.80;4.47;;;26.50;29.50;;;;;;10426407;28;20237;-73
2023/10/10 12:32:22;;;;;;;6.13;3.93;;;26.50;29.50;;;;;;10422733;28;20599;-73
2023/10/10 12:37:25;;;;;;;9.77;4.70;;;26.50;28.90;;;;;;10430881;28;20307;-74
2023/10/10 12:42:28;;;;;;;7.20;4.30;;;26.50;29.50;;;;;;10419691;28;20240;-75
2023/10/10 12:47:33;;;;;;;6.87;4.20;;;26.60;28.70;;;;;;10431277;28;20242;-75
2023/10/10 12:52:45;;;;;;;5.50;4.33;;;26.50;28.00;;;;;;10435240;28;21147;-75
2023/10/10 12:57:54;;;;;;;9.47;4.60;;;26.50;28.70;;;;;;10425573;28;20707;-75
2023/10/10 13:02:59;;;;;;;6.73;4.60;;;26.50;28.00;;;;;;10412167;28;20320;-75
2023/10/10 13:08:06;;;;;;;6.30;4.27;;;26.50;27.70;;;;;;10446182;28;20238;-75
2023/10/10 13:13:09;;;;;;;7.90;4.20;;;26.50;28.20;;;;;;10460551;28;20229;-74
2023/10/10 13:18:20;;;;;;;7.27;4.60;;;26.50;28.20;;;;;;10456510;28;20221;-74
2023/10/10 13:23:23;;;;;;;6.00;3.87;;;26.50;27.70;;;;;;10463105;28;20232;-75
2023/10/10 13:28:27;;;;;;;9.83;4.10;;;26.60;27.90;;;;;;10457959;28;20361;-75
2023/10/10 13:33:31;;;;;;;8.13;4.40;;;26.60;27.80;;;;;;10462663;28;20308;-75
2023/10/10 13:38:35;;;;;;;7.17;4.20;;;26.70;27.00;;;;;;10460623;28;20266;-74
2023/10/10 13:43:41;;;;;;;7.30;4.40;;;26.80;27.50;;;;;;10447361;28;20224;-74
2023/10/10 13:48:46;;;;;;;5.87;3.90;;;26.90;27.50;;;;;;10433705;28;20267;-74
2023/10/10 13:53:49;;;;;;;7.30;4.20;;;26.90;26.50;;;;;;10426552;28;20225;-74
2023/10/10 13:58:52;;;;;;;7.13;4.30;;;26.90;26.90;;;;;;10439382;28;20233;-74
2023/10/10 14:04:01;;;;;;;5.47;3.73;;;26.90;26.80;;;;;;10425140;28;20225;-76
2023/10/10 14:09:05;;;;;;;7.57;4.00;;;26.90;26.00;;;;;;10431531;28;20299;-75
2023/10/10 14:14:09;;;;;;;6.73;3.90;;;26.90;26.60;;;;;;10438604;28;20319;-75
2023/10/10 14:19:13;;;;;;;6.37;3.90;;;26.90;26.40;;;;;;10423113;28;20676;-74
2023/10/10 14:24:18;;;;;;;6.13;4.00;;;26.90;25.70;;;;;;10446512;28;20231;-77
2023/10/10 14:29:22;;;;;;;8.17;4.57;;;26.90;26.50;;;;;;10431231;28;20457;-75
2023/10/10 14:34:30;;;;;;;6.73;3.77;;;26.90;26.50;;;;;;10435636;28;20228;-74
2023/10/10 14:39:36;;;;;;;6.13;3.90;;;27.00;25.60;;;;;;10440104;28;20476;-76
2023/10/10 14:44:40;;;;;;;5.73;4.00;;;27.00;25.90;;;;;;10432999;28;20260;-74
2023/10/10 14:49:45;;;;;;;6.53;3.90;;;27.00;25.90;;;;;;10427563;28;20233;-74
2023/10/10 14:54:49;;;;;;;7.13;4.50;;;26.90;25.60;;;;;;10427645;28;20886;-74
2023/10/10 14:59:55;;;;;;;6.00;4.10;;;26.90;25.90;;;;;;10421419;28;20220;-74
2023/10/10 15:05:08;;;;;;;4.20;3.43;;;26.90;25.60;;;;;;10426101;28;20236;-74
2023/10/10 15:10:12;;;;;;;6.80;4.00;;;26.80;25.50;;;;;;10425118;28;20319;-74
2023/10/10 15:15:16;;;;;;;5.07;3.80;;;26.80;25.50;;;;;;10423553;28;20324;-74
2023/10/10 15:20:21;;;;;;;6.53;3.87;;;26.80;25.80;;;;;;10428021;28;20821;-74
2023/10/10 15:25:24;;;;;;;5.10;3.50;;;26.80;25.60;;;;;;10439303;28;20303;-74
2023/10/10 15:30:28;;;;;;;6.17;3.80;;;26.70;26.10;;;;;;10422745;28;20260;-74
2023/10/10 15:35:38;;;;;;;6.33;4.20;;;26.70;26.30;;;;;;10436822;28;20241;-74
2023/10/10 15:40:43;;;;;;;6.27;4.13;;;26.60;26.20;;;;;;10432433;28;20730;-74
2023/10/10 15:45:47;;;;;;;7.20;4.20;;;26.50;26.30;;;;;;10439505;28;20933;-75
2023/10/10 15:50:53;;;;;;;6.83;4.20;;;26.40;26.40;;;;;;10438492;28;20239;-75
2023/10/10 15:56:11;;;;;;;7.10;4.83;;;26.30;26.40;;;;;;10429300;28;20600;-75
2023/10/10 16:01:15;;;;;;;6.87;4.27;;;26.20;26.60;;;;;;10474620;28;20306;-74
2023/10/10 16:06:22;;;;;;;7.20;4.40;;;26.10;26.50;;;;;;10476527;28;20852;-75
2023/10/10 16:11:31;;;;;;;7.07;4.60;;;25.90;26.10;;;;;;10477558;28;20321;-75
2023/10/10 16:16:35;;;;;;;9.60;5.33;;;25.70;26.60;;;;;;10477771;28;20228;-75
2023/10/10 16:21:40;;;;;;;9.23;5.03;;;25.60;26.90;;;;;;10475208;28;20671;-75
2023/10/10 16:26:43;;;;;;;8.70;5.57;;;25.40;26.90;;;;;;10473597;28;20741;-74
2023/10/10 16:31:47;;;;;;;14.83;6.13;;;25.30;27.10;;;;;;10471666;28;20752;-74
2023/10/10 16:36:51;;;;;;;9.30;6.13;;;25.20;27.20;;;;;;10476233;28;20671;-74
2023/10/10 16:41:58;;;;;;;9.47;6.33;;;25.10;27.40;;;;;;10470434;28;20326;-74
2023/10/10 16:47:01;;;;;;;6.47;5.13;;;25.00;27.30;;;;;;10475702;28;20242;-74
2023/10/10 16:52:06;;;;;;;8.80;5.97;;;24.80;27.40;;;;;;10450264;28;20229;-74
2023/10/10 16:57:11;;;;;;;9.00;5.37;;;24.70;27.30;;;;;;10430444;28;20225;-74
2023/10/10 17:02:14;;;;;;;10.87;5.67;;;24.50;27.50;;;;;;10464861;28;20232;-74
2023/10/10 17:07:19;;;;;;;8.07;5.80;;;24.30;27.80;;;;;;10431152;28;20229;-74
2023/10/10 17:12:22;;;;;;;7.13;5.20;;;24.10;28.10;;;;;;10447005;28;20232;-74
2023/10/10 17:17:25;;;;;;;10.57;5.60;;;24.00;28.00;;;;;;10476266;28;20228;-74
2023/10/10 17:22:30;;;;;;;10.03;5.87;;;23.80;27.90;;;;;;10475555;28;20239;-74
2023/10/10 17:27:37;;;;;;;9.10;6.00;;;23.70;27.80;;;;;;10474830;28;20293;-73
2023/10/10 17:32:40;;;;;;;13.33;5.90;;;23.60;27.80;;;;;;10467154;28;20261;-74
2023/10/10 17:37:45;;;;;;;13.33;6.33;;;23.40;27.60;;;;;;10474100;28;20235;-74
2023/10/10 17:42:48;;;;;;;9.97;6.07;;;23.20;27.50;;;;;;10470847;28;20246;-74
2023/10/10 17:47:52;;;;;;;11.90;5.87;;;22.80;27.60;;;;;;10471879;28;20237;-74
2023/10/10 17:52:57;;;;;;;8.63;5.17;;;22.40;28.00;;;;;;10470347;28;20232;-74
2023/10/10 17:58:00;;;;;;;6.97;5.17;;;22.10;28.40;;;;;;10469301;28;20319;-74
2023/10/10 18:03:05;;;;;;;6.33;4.27;;;21.80;28.50;;;;;;10462651;28;20244;-74
2023/10/10 18:08:13;;;;;;;6.73;5.00;;;21.50;28.80;;;;;;10448154;28;20235;-74
2023/10/10 18:13:16;;;;;;;6.90;4.90;;;21.40;29.20;;;;;;10413425;28;20232;-74
2023/10/10 18:18:19;;;;;;;8.27;5.13;;;21.40;29.10;;;;;;10444048;28;20235;-74
2023/10/10 18:23:24;;;;;;;11.27;5.90;;;21.30;29.20;;;;;;10438863;28;21065;-74
2023/10/10 18:28:28;;;;;;;7.80;4.70;;;21.20;29.50;;;;;;10445371;28;20236;-74
2023/10/10 18:33:31;;;;;;;8.30;5.47;;;21.20;29.40;;;;;;10443757;28;20232;-74
2023/10/10 18:38:37;;;;;;;12.40;6.10;;;21.10;29.50;;;;;;10429972;28;20240;-74
2023/10/10 18:43:41;;;;;;;10.20;5.77;;;21.00;29.70;;;;;;10440808;28;20232;-74
2023/10/10 18:48:45;;;;;;;8.00;5.83;;;20.70;29.50;;;;;;10444846;28;20244;-74
2023/10/10 18:53:51;;;;;;;12.90;5.97;;;20.50;29.70;;;;;;10436579;28;20233;-74
2023/10/10 18:58:54;;;;;;;8.23;5.03;;;20.40;30.10;;;;;;10466085;28;20263;-74
2023/10/10 19:04:00;;;;;;;7.33;4.87;;;20.20;29.90;;;;;;10452472;28;20239;-75
2023/10/10 19:09:11;;;;;;;6.37;5.00;;;20.20;30.10;;;;;;10460299;28;21105;-74
2023/10/10 19:14:15;;;;;;;12.23;5.10;;;20.10;30.30;;;;;;10432230;28;20221;-74
2023/10/10 19:19:19;;;;;;;9.03;5.90;;;20.10;30.20;;;;;;10420107;28;20960;-74
2023/10/10 19:24:24;;;;;;;10.50;5.67;;;20.10;30.20;;;;;;10421583;28;20241;-74
2023/10/10 19:29:29;;;;;;;6.33;5.27;;;20.10;30.50;;;;;;10419251;28;20229;-74
2023/10/10 19:34:34;;;;;;;8.30;6.37;;;20.00;30.20;;;;;;10423051;28;20231;-74
2023/10/10 19:39:39;;;;;;;11.50;6.10;;;20.00;30.30;;;;;;10420193;28;20229;-74
2023/10/10 19:44:42;;;;;;;8.90;5.17;;;19.90;30.70;;;;;;10420493;28;20615;-73
2023/10/10 19:49:45;;;;;;;10.10;5.87;;;19.90;30.40;;;;;;10415334;28;20244;-73
2023/10/10 19:54:51;;;;;;;9.60;6.13;;;19.80;30.30;;;;;;10423595;28;20244;-73
2023/10/10 19:59:54;;;;;;;8.47;5.30;;;19.70;30.70;;;;;;10443749;28;20320;-73
2023/10/10 20:04:58;;;;;;;7.60;5.30;;;19.50;30.50;;;;;;10420024;28;20224;-74
2023/10/10 20:10:04;;;;;;;12.03;5.53;;;19.40;30.80;;;;;;10422469;28;20995;-73
2023/10/10 20:15:12;;;;;;;9.97;5.80;;;19.30;31.20;;;;;;10459366;28;20223;-73
2023/10/10 20:20:16;;;;;;;10.20;5.73;;;19.20;31.20;;;;;;10465536;28;20233;-73
2023/10/10 20:25:22;;;;;;;9.50;5.40;;;19.20;31.20;;;;;;10461098;28;20225;-73
2023/10/10 20:30:29;;;;;;;11.33;6.23;;;19.10;31.50;;;;;;10422057;28;20281;-73
2023/10/10 20:35:32;;;;;;;8.27;5.50;;;19.10;31.20;;;;;;10443565;28;20220;-73
2023/10/10 20:40:42;;;;;;;7.50;5.23;;;19.00;31.40;;;;;;10420774;28;20235;-73
2023/10/10 20:45:46;;;;;;;9.80;5.40;;;19.00;31.70;;;;;;10417099;28;20229;-73
2023/10/10 20:50:50;;;;;;;7.47;5.50;;;18.90;31.40;;;;;;10425956;28;20830;-73
2023/10/10 20:55:55;;;;;;;9.83;5.93;;;18.90;31.50;;;;;;10425631;28;20232;-74
2023/10/10 21:01:00;;;;;;;9.07;5.53;;;18.90;31.80;;;;;;10424725;28;20613;-74
2023/10/10 21:06:05;;;;;;;11.30;6.23;;;18.90;31.50;;;;;;10423450;28;20228;-74
2023/10/10 21:11:10;;;;;;;11.00;5.97;;;18.80;32.10;;;;;;10422233;28;20433;-73
2023/10/10 21:16:14;;;;;;;11.20;6.17;;;18.70;32.00;;;;;;10426318;28;20226;-74
2023/10/10 21:21:21;;;;;;;10.07;5.87;;;18.60;32.50;;;;;;10422981;28;20225;-74
2023/10/10 21:32:22;;;;;;;12.17;6.00;;;18.30;32.70;;;;;;10474600;22;20231;-74
2023/10/10 21:37:27;;;;;;;9.80;6.03;;;18.10;32.20;;;;;;10344728;28;20276;-75
2023/10/10 21:42:32;;;;;;;8.07;5.57;;;17.90;32.40;;;;;;10381062;28;20225;-75
2023/10/10 21:47:35;;;;;;;10.80;6.03;;;17.90;33.00;;;;;;10373777;28;20229;-74
2023/10/10 21:52:39;;;;;;;10.30;5.43;;;17.80;32.70;;;;;;10381056;28;20222;-74
2023/10/10 21:57:48;;;;;;;9.00;5.60;;;17.90;32.80;;;;;;10353581;28;20225;-76
2023/10/10 22:02:52;;;;;;;12.17;6.23;;;17.90;33.70;;;;;;10348212;28;20819;-75
2023/10/10 22:07:57;;;;;;;9.47;6.00;;;17.90;32.90;;;;;;10343076;28;20600;-75
2023/10/10 22:13:03;;;;;;;12.27;5.77;;;17.80;32.80;;;;;;10367397;28;20359;-76
2023/10/10 22:18:07;;;;;;;6.43;5.00;;;17.70;33.30;;;;;;10343926;28;20233;-76
2023/10/10 22:23:11;;;;;;;9.20;6.00;;;17.60;33.00;;;;;;10348232;28;20459;-78
2023/10/10 22:28:16;;;;;;;7.07;5.40;;;17.50;33.20;;;;;;10379020;28;20230;-78
2023/10/10 22:33:19;;;;;;;8.93;5.47;;;17.40;34.10;;;;;;10387755;28;20224;-78
2023/10/10 22:38:23;;;;;;;7.87;5.53;;;17.40;33.70;;;;;;10392881;28;20230;-78
2023/10/10 22:43:27;;;;;;;6.37;4.57;;;17.40;33.70;;;;;;10390541;28;20229;-75
2023/10/10 22:48:33;;;;;;;6.27;4.70;;;17.40;34.20;;;;;;10391150;28;20236;-75
2023/10/10 22:53:37;;;;;;;8.23;4.97;;;17.40;33.70;;;;;;10394248;28;20310;-75
2023/10/10 22:58:42;;;;;;;8.40;4.90;;;17.40;33.50;;;;;;10390824;28;20234;-75
2023/10/10 23:03:46;;;;;;;6.40;4.93;;;17.40;34.20;;;;;;10396093;28;20230;-75
2023/10/10 23:08:49;;;;;;;7.60;5.50;;;17.40;33.50;;;;;;10391307;28;20248;-75
2023/10/10 23:13:54;;;;;;;8.70;5.47;;;17.40;33.70;;;;;;10388937;28;20241;-78
2023/10/10 23:18:57;;;;;;;12.50;5.70;;;17.30;34.10;;;;;;10388736;28;20263;-78
2023/10/10 23:24:02;;;;;;;7.80;4.93;;;17.30;33.60;;;;;;10392770;28;20233;-78
2023/10/10 23:29:07;;;;;;;7.73;5.47;;;17.20;33.80;;;;;;10341334;28;20696;-78
2023/10/10 23:34:10;;;;;;;11.17;5.43;;;17.20;34.00;;;;;;10349845;28;20227;-78
2023/10/10 23:39:16;;;;;;;9.23;5.67;;;17.10;34.00;;;;;;10344379;28;20752;-76
2023/10/10 23:44:27;;;;;;;10.97;5.57;;;17.00;33.90;;;;;;10342065;28;20276;-76
2023/10/10 23:49:30;;;;;;;10.20;5.60;;;16.90;33.80;;;;;;10357793;28;20241;-76
2023/10/10 23:54:35;;;;;;;9.27;5.37;;;16.80;33.70;;;;;;10341394;28;20222;-78
2023/10/10 23:59:39;;;;;;;8.57;4.93;;;16.70;33.80;;;;;;10357913;28;20225;-78
